Nearby METAR Reports

 

KPBH - Phillips, Wisconsin, USA
Distance from station: SE 13mi, 21km
Updated: 07/22/2018 8:15pm
Clear
Clear
 Wind from N
Wind: N 5 mph , 7 km/h
Temperature: 68°F , 20°C
Dew Point: 63°F , 17°C
Humidity: 83%
Barometer: 30.06 inHg , 1017.9 hPa
Clouds: Clear
Visibility: 10 miles , 16 km
2018/07/23 01:15 KPBH 230115Z AUTO 35004KT 10SM CLR 20/17 A3006 RMK AO2 T01980165
KRCX - Ladysmith/Rusk, Wisconsin, USA
Distance from station: SW 29mi, 46km
Updated: 07/22/2018 8:15pm
Clear
Clear
 Wind from N
Wind: N 8 mph , 13 km/h
Temperature: 72°F , 22°C
Dew Point: 63°F , 17°C
Humidity: 73%
Barometer: 30.07 inHg , 1018.3 hPa
Clouds: Clear
Visibility: 10 miles , 16 km
2018/07/23 01:15 KRCX 230115Z AUTO 35007KT 10SM CLR 22/17 A3007 RMK AO2 T02180165
 
KD25 - Manitowish Water, Wisconsin, USA
Distance from station: ENE 41mi, 66km
Updated: 07/22/2018 8:15pm
Clear
Clear
 Wind from NNW
Wind: NNW 6 mph , 9 km/h
Temperature: 66°F , 19°C
Dew Point: 61°F , 16°C
Humidity: 83%
Barometer: 30.08 inHg , 1018.6 hPa
Clouds: Clear
Visibility: 10 miles , 16 km
2018/07/23 01:15 KD25 230115Z AUTO 34005KT 10SM CLR 19/16 A3008 RMK AO2 T01880160
KHYR - Hayward, Wisconsin, USA
Distance from station: WNW 42mi, 68km
Updated: 07/22/2018 7:53pm
Clear
Clear
 Wind from NNE
Wind: NNE 9 mph , 15 km/h
Temperature: 68°F , 20°C
Dew Point: 57°F , 14°C
Humidity: 69%
Barometer: 30.09 inHg , 1019 hPa
Clouds: Clear
Visibility: 10 miles , 16 km
2018/07/23 00:53 KHYR 230053Z AUTO 02008KT 10SM CLR 20/14 A3009 RMK AO2 SLP186 T02000139
 
KARV - Minocqua/Woodruf, Wisconsin, USA
Distance from station: E 44mi, 71km
Updated: 07/22/2018 8:15pm
Clear
Clear
 Wind from N
Wind: N 6 mph , 9 km/h
Temperature: 70°F , 21°C
Dew Point: 64°F , 18°C
Humidity: 83%
Barometer: 30.06 inHg , 1017.9 hPa
Clouds: Clear
Visibility: 10 miles , 16 km
2018/07/23 01:15 KARV 230115Z AUTO 36005KT 10SM CLR 21/18 A3006 RMK AO2 T02070176
KTKV - Tomahawk Regnl, Wisconsin, USA
Distance from station: ESE 46mi, 74km
Updated: 07/22/2018 8:15pm
Clear
Clear
 Wind from calm
Wind: Calm
Temperature: 70°F , 21°C
Dew Point: 63°F , 17°C
Humidity: 78%
Barometer: 30.05 inHg , 1017.6 hPa
Clouds: Clear
Visibility: 10 miles , 16 km
2018/07/23 01:15 KTKV 230115Z AUTO 00000KT 10SM CLR 21/17 A3005 RMK AO2 T02060166